sensor_id;sensor_type;location;lat;lon;timestamp;P1;durP1;ratioP1;P2;durP2;ratioP2
14139;SDS011;7150;53.514;9.988;2023-03-16T00:02:25;7.13;;;3.10;;
14139;SDS011;7150;53.514;9.988;2023-03-16T00:04:50;9.03;;;3.17;;
14139;SDS011;7150;53.514;9.988;2023-03-16T00:07:16;5.30;;;3.40;;
14139;SDS011;7150;53.514;9.988;2023-03-16T00:09:42;7.70;;;2.93;;
14139;SDS011;7150;53.514;9.988;2023-03-16T00:12:14;7.00;;;3.10;;
14139;SDS011;7150;53.514;9.988;2023-03-16T00:14:45;7.67;;;2.60;;
14139;SDS011;7150;53.514;9.988;2023-03-16T00:17:12;6.40;;;2.93;;
14139;SDS011;7150;53.514;9.988;2023-03-16T00:19:46;11.83;;;3.23;;
14139;SDS011;7150;53.514;9.988;2023-03-16T00:22:13;10.67;;;3.50;;
14139;SDS011;7150;53.514;9.988;2023-03-16T00:24:40;8.37;;;2.50;;
14139;SDS011;7150;53.514;9.988;2023-03-16T00:27:07;5.30;;;2.83;;
14139;SDS011;7150;53.514;9.988;2023-03-16T00:29:43;6.40;;;2.70;;
14139;SDS011;7150;53.514;9.988;2023-03-16T00:32:11;7.00;;;2.80;;
14139;SDS011;7150;53.514;9.988;2023-03-16T00:34:41;6.97;;;3.00;;
14139;SDS011;7150;53.514;9.988;2023-03-16T00:37:07;6.00;;;3.10;;
14139;SDS011;7150;53.514;9.988;2023-03-16T00:39:33;9.40;;;2.77;;
14139;SDS011;7150;53.514;9.988;2023-03-16T00:41:59;8.23;;;2.80;;
14139;SDS011;7150;53.514;9.988;2023-03-16T00:44:26;9.30;;;2.93;;
14139;SDS011;7150;53.514;9.988;2023-03-16T00:46:52;8.10;;;2.90;;
14139;SDS011;7150;53.514;9.988;2023-03-16T00:49:17;8.83;;;2.70;;
14139;SDS011;7150;53.514;9.988;2023-03-16T00:51:43;6.83;;;2.70;;
14139;SDS011;7150;53.514;9.988;2023-03-16T00:54:10;5.80;;;2.87;;
14139;SDS011;7150;53.514;9.988;2023-03-16T00:56:36;9.30;;;3.10;;
14139;SDS011;7150;53.514;9.988;2023-03-16T00:59:01;10.13;;;3.03;;
14139;SDS011;7150;53.514;9.988;2023-03-16T01:01:27;7.23;;;2.73;;
14139;SDS011;7150;53.514;9.988;2023-03-16T01:03:52;10.47;;;3.57;;
14139;SDS011;7150;53.514;9.988;2023-03-16T01:06:18;6.93;;;3.47;;
14139;SDS011;7150;53.514;9.988;2023-03-16T01:08:47;5.70;;;2.90;;
14139;SDS011;7150;53.514;9.988;2023-03-16T01:11:14;9.20;;;3.90;;
14139;SDS011;7150;53.514;9.988;2023-03-16T01:13:41;6.87;;;3.00;;
14139;SDS011;7150;53.514;9.988;2023-03-16T01:16:08;5.17;;;2.60;;
14139;SDS011;7150;53.514;9.988;2023-03-16T01:18:34;6.20;;;3.20;;
14139;SDS011;7150;53.514;9.988;2023-03-16T01:21:00;10.20;;;3.33;;
14139;SDS011;7150;53.514;9.988;2023-03-16T01:23:28;11.93;;;3.10;;
14139;SDS011;7150;53.514;9.988;2023-03-16T01:25:54;8.27;;;3.23;;
14139;SDS011;7150;53.514;9.988;2023-03-16T01:28:21;9.30;;;3.13;;
14139;SDS011;7150;53.514;9.988;2023-03-16T01:30:49;5.97;;;3.00;;
14139;SDS011;7150;53.514;9.988;2023-03-16T01:33:20;6.93;;;2.93;;
14139;SDS011;7150;53.514;9.988;2023-03-16T01:36:19;5.67;;;2.87;;
14139;SDS011;7150;53.514;9.988;2023-03-16T01:38:39;7.10;;;3.70;;
14139;SDS011;7150;53.514;9.988;2023-03-16T01:41:05;6.17;;;3.00;;
14139;SDS011;7150;53.514;9.988;2023-03-16T01:43:32;6.53;;;3.23;;
14139;SDS011;7150;53.514;9.988;2023-03-16T01:48:32;6.43;;;3.27;;
14139;SDS011;7150;53.514;9.988;2023-03-16T01:51:11;9.47;;;3.60;;
14139;SDS011;7150;53.514;9.988;2023-03-16T01:53:45;6.70;;;3.20;;
14139;SDS011;7150;53.514;9.988;2023-03-16T01:56:13;7.53;;;3.00;;
14139;SDS011;7150;53.514;9.988;2023-03-16T01:58:43;7.60;;;3.27;;
14139;SDS011;7150;53.514;9.988;2023-03-16T02:01:10;8.77;;;3.83;;
14139;SDS011;7150;53.514;9.988;2023-03-16T02:03:37;8.03;;;3.17;;
14139;SDS011;7150;53.514;9.988;2023-03-16T02:06:24;6.17;;;2.77;;
14139;SDS011;7150;53.514;9.988;2023-03-16T02:08:49;8.60;;;3.53;;
14139;SDS011;7150;53.514;9.988;2023-03-16T02:11:19;11.00;;;2.97;;
14139;SDS011;7150;53.514;9.988;2023-03-16T02:13:46;5.53;;;2.80;;
14139;SDS011;7150;53.514;9.988;2023-03-16T02:16:12;6.80;;;2.80;;
14139;SDS011;7150;53.514;9.988;2023-03-16T02:18:43;5.27;;;2.53;;
14139;SDS011;7150;53.514;9.988;2023-03-16T02:21:18;7.33;;;2.93;;
14139;SDS011;7150;53.514;9.988;2023-03-16T02:23:51;7.87;;;2.80;;
14139;SDS011;7150;53.514;9.988;2023-03-16T02:26:20;6.37;;;2.67;;
14139;SDS011;7150;53.514;9.988;2023-03-16T02:32:08;5.97;;;2.90;;
14139;SDS011;7150;53.514;9.988;2023-03-16T02:34:35;4.57;;;2.83;;
14139;SDS011;7150;53.514;9.988;2023-03-16T02:37:02;7.60;;;3.00;;
14139;SDS011;7150;53.514;9.988;2023-03-16T02:39:29;6.90;;;3.30;;
14139;SDS011;7150;53.514;9.988;2023-03-16T02:41:54;5.17;;;2.60;;
14139;SDS011;7150;53.514;9.988;2023-03-16T02:44:26;7.00;;;2.77;;
14139;SDS011;7150;53.514;9.988;2023-03-16T02:46:58;11.57;;;3.07;;
14139;SDS011;7150;53.514;9.988;2023-03-16T02:49:35;4.53;;;2.47;;
14139;SDS011;7150;53.514;9.988;2023-03-16T02:52:03;6.53;;;2.63;;
14139;SDS011;7150;53.514;9.988;2023-03-16T02:54:30;6.50;;;2.50;;
14139;SDS011;7150;53.514;9.988;2023-03-16T02:56:56;5.27;;;2.40;;
14139;SDS011;7150;53.514;9.988;2023-03-16T02:59:21;4.30;;;2.40;;
14139;SDS011;7150;53.514;9.988;2023-03-16T03:01:47;3.53;;;2.30;;
14139;SDS011;7150;53.514;9.988;2023-03-16T03:04:12;5.47;;;3.00;;
14139;SDS011;7150;53.514;9.988;2023-03-16T03:06:38;7.10;;;2.67;;
14139;SDS011;7150;53.514;9.988;2023-03-16T03:09:05;5.87;;;2.43;;
14139;SDS011;7150;53.514;9.988;2023-03-16T03:11:31;6.13;;;2.90;;
14139;SDS011;7150;53.514;9.988;2023-03-16T03:13:56;5.57;;;2.40;;
14139;SDS011;7150;53.514;9.988;2023-03-16T03:16:22;3.40;;;2.17;;
14139;SDS011;7150;53.514;9.988;2023-03-16T03:18:48;6.47;;;2.50;;
14139;SDS011;7150;53.514;9.988;2023-03-16T03:21:16;5.80;;;3.00;;
14139;SDS011;7150;53.514;9.988;2023-03-16T03:23:42;3.60;;;1.93;;
14139;SDS011;7150;53.514;9.988;2023-03-16T03:26:10;4.03;;;2.40;;
14139;SDS011;7150;53.514;9.988;2023-03-16T03:28:36;5.40;;;2.50;;
14139;SDS011;7150;53.514;9.988;2023-03-16T03:31:01;6.10;;;2.77;;
14139;SDS011;7150;53.514;9.988;2023-03-16T03:33:27;6.23;;;2.60;;
14139;SDS011;7150;53.514;9.988;2023-03-16T03:35:54;5.30;;;2.50;;
14139;SDS011;7150;53.514;9.988;2023-03-16T03:38:20;5.40;;;2.57;;
14139;SDS011;7150;53.514;9.988;2023-03-16T03:40:52;3.93;;;2.70;;
14139;SDS011;7150;53.514;9.988;2023-03-16T03:43:23;5.63;;;2.30;;
14139;SDS011;7150;53.514;9.988;2023-03-16T03:45:49;4.60;;;2.13;;
14139;SDS011;7150;53.514;9.988;2023-03-16T03:48:22;5.27;;;2.50;;
14139;SDS011;7150;53.514;9.988;2023-03-16T03:50:48;6.17;;;2.10;;
14139;SDS011;7150;53.514;9.988;2023-03-16T03:53:14;8.23;;;2.70;;
14139;SDS011;7150;53.514;9.988;2023-03-16T03:55:39;4.80;;;2.43;;
14139;SDS011;7150;53.514;9.988;2023-03-16T03:58:05;6.10;;;2.47;;
14139;SDS011;7150;53.514;9.988;2023-03-16T04:00:31;6.77;;;2.23;;
14139;SDS011;7150;53.514;9.988;2023-03-16T04:02:56;4.10;;;2.13;;
14139;SDS011;7150;53.514;9.988;2023-03-16T04:05:22;4.37;;;2.23;;
14139;SDS011;7150;53.514;9.988;2023-03-16T04:07:51;9.57;;;2.50;;
14139;SDS011;7150;53.514;9.988;2023-03-16T04:10:25;5.17;;;2.47;;
14139;SDS011;7150;53.514;9.988;2023-03-16T04:12:52;5.63;;;2.63;;
14139;SDS011;7150;53.514;9.988;2023-03-16T04:15:19;4.73;;;2.37;;
14139;SDS011;7150;53.514;9.988;2023-03-16T04:17:46;6.30;;;2.37;;
14139;SDS011;7150;53.514;9.988;2023-03-16T04:20:12;4.67;;;2.40;;
14139;SDS011;7150;53.514;9.988;2023-03-16T04:22:40;6.87;;;2.70;;
14139;SDS011;7150;53.514;9.988;2023-03-16T04:25:07;5.13;;;2.30;;
14139;SDS011;7150;53.514;9.988;2023-03-16T04:27:33;4.80;;;2.50;;
14139;SDS011;7150;53.514;9.988;2023-03-16T04:30:00;4.93;;;2.83;;
14139;SDS011;7150;53.514;9.988;2023-03-16T04:32:30;5.80;;;2.30;;
14139;SDS011;7150;53.514;9.988;2023-03-16T04:34:58;5.83;;;2.50;;
14139;SDS011;7150;53.514;9.988;2023-03-16T04:37:24;3.80;;;2.20;;
14139;SDS011;7150;53.514;9.988;2023-03-16T04:39:49;6.03;;;2.27;;
14139;SDS011;7150;53.514;9.988;2023-03-16T04:42:15;5.53;;;2.20;;
14139;SDS011;7150;53.514;9.988;2023-03-16T04:44:40;4.47;;;1.90;;
14139;SDS011;7150;53.514;9.988;2023-03-16T04:47:12;4.80;;;2.50;;
14139;SDS011;7150;53.514;9.988;2023-03-16T04:49:39;6.10;;;2.40;;
14139;SDS011;7150;53.514;9.988;2023-03-16T04:52:04;3.77;;;2.10;;
14139;SDS011;7150;53.514;9.988;2023-03-16T04:54:30;5.30;;;2.83;;
14139;SDS011;7150;53.514;9.988;2023-03-16T04:56:57;7.27;;;2.27;;
14139;SDS011;7150;53.514;9.988;2023-03-16T04:59:23;3.80;;;2.27;;
14139;SDS011;7150;53.514;9.988;2023-03-16T05:01:49;5.60;;;2.30;;
14139;SDS011;7150;53.514;9.988;2023-03-16T05:04:14;5.90;;;2.77;;
14139;SDS011;7150;53.514;9.988;2023-03-16T05:06:40;8.10;;;2.17;;
14139;SDS011;7150;53.514;9.988;2023-03-16T05:09:06;3.97;;;2.03;;
14139;SDS011;7150;53.514;9.988;2023-03-16T05:11:32;3.83;;;1.97;;
14139;SDS011;7150;53.514;9.988;2023-03-16T05:13:58;8.03;;;2.70;;
14139;SDS011;7150;53.514;9.988;2023-03-16T05:16:25;5.27;;;2.07;;
14139;SDS011;7150;53.514;9.988;2023-03-16T05:18:51;4.30;;;2.00;;
14139;SDS011;7150;53.514;9.988;2023-03-16T05:21:17;7.70;;;2.10;;
14139;SDS011;7150;53.514;9.988;2023-03-16T05:23:42;5.07;;;2.03;;
14139;SDS011;7150;53.514;9.988;2023-03-16T05:26:08;2.57;;;1.87;;
14139;SDS011;7150;53.514;9.988;2023-03-16T05:28:33;4.70;;;1.93;;
14139;SDS011;7150;53.514;9.988;2023-03-16T05:30:59;4.53;;;1.90;;
14139;SDS011;7150;53.514;9.988;2023-03-16T05:33:27;4.43;;;2.00;;
14139;SDS011;7150;53.514;9.988;2023-03-16T05:35:53;3.83;;;2.17;;
14139;SDS011;7150;53.514;9.988;2023-03-16T05:38:18;5.00;;;2.40;;
14139;SDS011;7150;53.514;9.988;2023-03-16T05:40:44;4.33;;;2.00;;
14139;SDS011;7150;53.514;9.988;2023-03-16T05:43:10;2.33;;;1.60;;
14139;SDS011;7150;53.514;9.988;2023-03-16T05:45:35;5.93;;;2.00;;
14139;SDS011;7150;53.514;9.988;2023-03-16T05:48:01;5.47;;;2.03;;
14139;SDS011;7150;53.514;9.988;2023-03-16T05:50:26;2.93;;;2.00;;
14139;SDS011;7150;53.514;9.988;2023-03-16T05:52:52;5.87;;;2.40;;
14139;SDS011;7150;53.514;9.988;2023-03-16T05:55:21;4.00;;;1.90;;
14139;SDS011;7150;53.514;9.988;2023-03-16T05:57:47;5.40;;;2.07;;
14139;SDS011;7150;53.514;9.988;2023-03-16T06:00:13;3.27;;;2.00;;
14139;SDS011;7150;53.514;9.988;2023-03-16T06:02:44;5.70;;;1.80;;
14139;SDS011;7150;53.514;9.988;2023-03-16T06:05:11;5.30;;;2.13;;
14139;SDS011;7150;53.514;9.988;2023-03-16T06:07:37;7.23;;;2.17;;
14139;SDS011;7150;53.514;9.988;2023-03-16T06:10:02;9.33;;;2.43;;
14139;SDS011;7150;53.514;9.988;2023-03-16T06:12:29;4.77;;;2.50;;
14139;SDS011;7150;53.514;9.988;2023-03-16T06:14:55;5.70;;;2.00;;
14139;SDS011;7150;53.514;9.988;2023-03-16T06:17:20;3.83;;;1.90;;
14139;SDS011;7150;53.514;9.988;2023-03-16T06:19:46;3.27;;;1.83;;
14139;SDS011;7150;53.514;9.988;2023-03-16T06:22:11;6.33;;;2.20;;
14139;SDS011;7150;53.514;9.988;2023-03-16T06:24:37;3.70;;;2.07;;
14139;SDS011;7150;53.514;9.988;2023-03-16T06:27:02;5.00;;;1.83;;
14139;SDS011;7150;53.514;9.988;2023-03-16T06:29:28;5.17;;;2.40;;
14139;SDS011;7150;53.514;9.988;2023-03-16T06:31:53;6.93;;;2.40;;
14139;SDS011;7150;53.514;9.988;2023-03-16T06:34:19;5.23;;;2.03;;
14139;SDS011;7150;53.514;9.988;2023-03-16T06:36:45;7.00;;;2.20;;
14139;SDS011;7150;53.514;9.988;2023-03-16T06:39:10;7.83;;;2.70;;
14139;SDS011;7150;53.514;9.988;2023-03-16T06:41:36;4.60;;;2.10;;
14139;SDS011;7150;53.514;9.988;2023-03-16T06:44:02;6.40;;;2.17;;
14139;SDS011;7150;53.514;9.988;2023-03-16T06:46:27;3.23;;;2.33;;
14139;SDS011;7150;53.514;9.988;2023-03-16T06:48:53;6.50;;;2.13;;
14139;SDS011;7150;53.514;9.988;2023-03-16T06:51:19;3.57;;;2.23;;
14139;SDS011;7150;53.514;9.988;2023-03-16T06:53:44;5.07;;;1.77;;
14139;SDS011;7150;53.514;9.988;2023-03-16T06:56:10;4.73;;;2.20;;
14139;SDS011;7150;53.514;9.988;2023-03-16T06:58:35;4.87;;;2.53;;
14139;SDS011;7150;53.514;9.988;2023-03-16T07:01:02;4.17;;;2.27;;
14139;SDS011;7150;53.514;9.988;2023-03-16T07:03:28;5.97;;;2.30;;
14139;SDS011;7150;53.514;9.988;2023-03-16T07:05:54;4.17;;;2.23;;
14139;SDS011;7150;53.514;9.988;2023-03-16T07:08:20;3.03;;;1.90;;
14139;SDS011;7150;53.514;9.988;2023-03-16T07:10:45;4.03;;;2.43;;
14139;SDS011;7150;53.514;9.988;2023-03-16T07:13:11;4.00;;;2.53;;
14139;SDS011;7150;53.514;9.988;2023-03-16T07:15:36;4.00;;;2.23;;
14139;SDS011;7150;53.514;9.988;2023-03-16T07:18:02;7.33;;;3.03;;
14139;SDS011;7150;53.514;9.988;2023-03-16T07:20:28;4.43;;;2.70;;
14139;SDS011;7150;53.514;9.988;2023-03-16T07:22:55;4.77;;;2.27;;
14139;SDS011;7150;53.514;9.988;2023-03-16T07:25:20;5.57;;;2.43;;
14139;SDS011;7150;53.514;9.988;2023-03-16T07:27:46;7.17;;;2.90;;
14139;SDS011;7150;53.514;9.988;2023-03-16T07:30:12;8.80;;;2.77;;
14139;SDS011;7150;53.514;9.988;2023-03-16T07:32:38;6.90;;;2.60;;
14139;SDS011;7150;53.514;9.988;2023-03-16T07:35:05;5.73;;;2.87;;
14139;SDS011;7150;53.514;9.988;2023-03-16T07:37:32;3.23;;;2.13;;
14139;SDS011;7150;53.514;9.988;2023-03-16T07:39:59;6.07;;;2.27;;
14139;SDS011;7150;53.514;9.988;2023-03-16T07:42:24;7.43;;;2.33;;
14139;SDS011;7150;53.514;9.988;2023-03-16T07:44:50;5.00;;;2.20;;
14139;SDS011;7150;53.514;9.988;2023-03-16T07:47:16;7.53;;;2.60;;
14139;SDS011;7150;53.514;9.988;2023-03-16T07:49:41;4.43;;;2.50;;
14139;SDS011;7150;53.514;9.988;2023-03-16T07:52:08;6.97;;;2.13;;
14139;SDS011;7150;53.514;9.988;2023-03-16T07:54:37;3.87;;;2.60;;
14139;SDS011;7150;53.514;9.988;2023-03-16T07:57:03;4.80;;;2.07;;
14139;SDS011;7150;53.514;9.988;2023-03-16T07:59:29;12.03;;;2.50;;
14139;SDS011;7150;53.514;9.988;2023-03-16T08:01:55;3.57;;;2.10;;
14139;SDS011;7150;53.514;9.988;2023-03-16T08:04:20;9.03;;;2.10;;
14139;SDS011;7150;53.514;9.988;2023-03-16T08:06:46;6.57;;;2.23;;
14139;SDS011;7150;53.514;9.988;2023-03-16T08:09:11;4.17;;;2.13;;
14139;SDS011;7150;53.514;9.988;2023-03-16T08:11:37;6.47;;;2.10;;
14139;SDS011;7150;53.514;9.988;2023-03-16T08:14:02;4.47;;;2.03;;
14139;SDS011;7150;53.514;9.988;2023-03-16T08:16:29;4.23;;;1.77;;
14139;SDS011;7150;53.514;9.988;2023-03-16T08:18:55;6.17;;;2.20;;
14139;SDS011;7150;53.514;9.988;2023-03-16T08:21:21;8.70;;;2.30;;
14139;SDS011;7150;53.514;9.988;2023-03-16T08:23:47;3.67;;;2.17;;
14139;SDS011;7150;53.514;9.988;2023-03-16T08:26:14;4.03;;;2.33;;
14139;SDS011;7150;53.514;9.988;2023-03-16T08:28:41;7.27;;;2.30;;
14139;SDS011;7150;53.514;9.988;2023-03-16T08:31:10;3.83;;;2.17;;
14139;SDS011;7150;53.514;9.988;2023-03-16T08:33:36;4.37;;;2.03;;
14139;SDS011;7150;53.514;9.988;2023-03-16T08:36:04;7.10;;;1.97;;
14139;SDS011;7150;53.514;9.988;2023-03-16T08:38:33;8.40;;;2.17;;
14139;SDS011;7150;53.514;9.988;2023-03-16T08:40:59;4.53;;;1.80;;
14139;SDS011;7150;53.514;9.988;2023-03-16T08:43:26;2.93;;;1.53;;
14139;SDS011;7150;53.514;9.988;2023-03-16T08:45:52;6.43;;;1.90;;
14139;SDS011;7150;53.514;9.988;2023-03-16T08:51:39;5.93;;;1.70;;
14139;SDS011;7150;53.514;9.988;2023-03-16T08:54:06;4.70;;;2.07;;
14139;SDS011;7150;53.514;9.988;2023-03-16T08:56:31;3.97;;;1.93;;
14139;SDS011;7150;53.514;9.988;2023-03-16T08:58:57;5.03;;;2.00;;
14139;SDS011;7150;53.514;9.988;2023-03-16T09:01:23;5.23;;;2.23;;
14139;SDS011;7150;53.514;9.988;2023-03-16T09:03:49;6.60;;;2.30;;
14139;SDS011;7150;53.514;9.988;2023-03-16T09:06:15;4.93;;;2.10;;
14139;SDS011;7150;53.514;9.988;2023-03-16T09:08:41;6.03;;;1.80;;
14139;SDS011;7150;53.514;9.988;2023-03-16T09:11:10;3.87;;;1.90;;
14139;SDS011;7150;53.514;9.988;2023-03-16T09:13:38;3.80;;;1.60;;
14139;SDS011;7150;53.514;9.988;2023-03-16T09:16:04;5.27;;;1.57;;
14139;SDS011;7150;53.514;9.988;2023-03-16T09:18:31;4.33;;;1.77;;
14139;SDS011;7150;53.514;9.988;2023-03-16T09:20:59;3.10;;;1.67;;
14139;SDS011;7150;53.514;9.988;2023-03-16T09:23:26;4.27;;;1.60;;
14139;SDS011;7150;53.514;9.988;2023-03-16T09:25:56;3.10;;;1.40;;
14139;SDS011;7150;53.514;9.988;2023-03-16T09:28:23;3.50;;;1.50;;
14139;SDS011;7150;53.514;9.988;2023-03-16T09:30:51;3.93;;;1.50;;
14139;SDS011;7150;53.514;9.988;2023-03-16T09:33:21;5.03;;;1.60;;
14139;SDS011;7150;53.514;9.988;2023-03-16T09:35:49;4.60;;;1.50;;
14139;SDS011;7150;53.514;9.988;2023-03-16T09:38:16;1.87;;;1.20;;
14139;SDS011;7150;53.514;9.988;2023-03-16T09:40:42;3.93;;;1.40;;
14139;SDS011;7150;53.514;9.988;2023-03-16T09:43:12;3.80;;;1.63;;
14139;SDS011;7150;53.514;9.988;2023-03-16T09:48:37;6.07;;;1.70;;
14139;SDS011;7150;53.514;9.988;2023-03-16T09:51:04;6.17;;;1.40;;
14139;SDS011;7150;53.514;9.988;2023-03-16T09:53:42;3.13;;;1.40;;
14139;SDS011;7150;53.514;9.988;2023-03-16T09:56:09;1.40;;;1.23;;
14139;SDS011;7150;53.514;9.988;2023-03-16T09:58:42;4.13;;;1.50;;
14139;SDS011;7150;53.514;9.988;2023-03-16T10:04:04;1.80;;;1.10;;
14139;SDS011;7150;53.514;9.988;2023-03-16T10:06:32;3.57;;;1.33;;
14139;SDS011;7150;53.514;9.988;2023-03-16T10:12:03;3.10;;;1.20;;
14139;SDS011;7150;53.514;9.988;2023-03-16T10:17:16;2.60;;;1.10;;
14139;SDS011;7150;53.514;9.988;2023-03-16T10:19:52;1.83;;;1.10;;
14139;SDS011;7150;53.514;9.988;2023-03-16T10:24:56;3.33;;;1.33;;
14139;SDS011;7150;53.514;9.988;2023-03-16T10:27:33;3.53;;;1.30;;
14139;SDS011;7150;53.514;9.988;2023-03-16T10:30:03;4.43;;;1.30;;
14139;SDS011;7150;53.514;9.988;2023-03-16T10:32:44;3.07;;;1.30;;
14139;SDS011;7150;53.514;9.988;2023-03-16T10:35:15;4.27;;;1.30;;
14139;SDS011;7150;53.514;9.988;2023-03-16T10:38:03;3.80;;;1.10;;
14139;SDS011;7150;53.514;9.988;2023-03-16T10:40:34;7.07;;;0.97;;
14139;SDS011;7150;53.514;9.988;2023-03-16T10:43:06;2.60;;;0.97;;
14139;SDS011;7150;53.514;9.988;2023-03-16T10:45:37;3.37;;;1.23;;
14139;SDS011;7150;53.514;9.988;2023-03-16T10:48:06;2.60;;;1.20;;
14139;SDS011;7150;53.514;9.988;2023-03-16T10:50:32;1.83;;;0.87;;
14139;SDS011;7150;53.514;9.988;2023-03-16T10:52:58;5.00;;;1.43;;
14139;SDS011;7150;53.514;9.988;2023-03-16T10:55:26;1.50;;;1.20;;
14139;SDS011;7150;53.514;9.988;2023-03-16T10:57:57;2.57;;;1.07;;
14139;SDS011;7150;53.514;9.988;2023-03-16T11:00:26;1.20;;;0.77;;
14139;SDS011;7150;53.514;9.988;2023-03-16T11:02:55;3.13;;;1.20;;
14139;SDS011;7150;53.514;9.988;2023-03-16T11:05:30;3.03;;;1.23;;
14139;SDS011;7150;53.514;9.988;2023-03-16T11:08:07;2.33;;;1.37;;
14139;SDS011;7150;53.514;9.988;2023-03-16T11:10:43;3.90;;;1.37;;
14139;SDS011;7150;53.514;9.988;2023-03-16T11:13:14;3.17;;;1.03;;
14139;SDS011;7150;53.514;9.988;2023-03-16T11:15:52;2.13;;;0.90;;
14139;SDS011;7150;53.514;9.988;2023-03-16T11:18:42;2.73;;;1.00;;
14139;SDS011;7150;53.514;9.988;2023-03-16T11:21:16;2.20;;;0.93;;
14139;SDS011;7150;53.514;9.988;2023-03-16T11:24:05;2.77;;;1.20;;
14139;SDS011;7150;53.514;9.988;2023-03-16T11:26:41;1.83;;;0.97;;
14139;SDS011;7150;53.514;9.988;2023-03-16T11:34:34;2.27;;;1.10;;
14139;SDS011;7150;53.514;9.988;2023-03-16T11:42:22;1.47;;;1.07;;
14139;SDS011;7150;53.514;9.988;2023-03-16T11:45:18;1.73;;;0.80;;
14139;SDS011;7150;53.514;9.988;2023-03-16T11:53:41;0.80;;;0.67;;
14139;SDS011;7150;53.514;9.988;2023-03-16T11:59:00;2.73;;;1.03;;
14139;SDS011;7150;53.514;9.988;2023-03-16T12:01:45;2.03;;;0.90;;
14139;SDS011;7150;53.514;9.988;2023-03-16T12:12:32;2.97;;;0.70;;
14139;SDS011;7150;53.514;9.988;2023-03-16T12:15:18;2.33;;;1.00;;
14139;SDS011;7150;53.514;9.988;2023-03-16T12:18:01;0.83;;;0.77;;
14139;SDS011;7150;53.514;9.988;2023-03-16T12:20:42;2.93;;;0.97;;
14139;SDS011;7150;53.514;9.988;2023-03-16T12:23:12;2.80;;;1.30;;
14139;SDS011;7150;53.514;9.988;2023-03-16T12:25:46;2.67;;;0.80;;
14139;SDS011;7150;53.514;9.988;2023-03-16T12:28:20;2.53;;;0.90;;
14139;SDS011;7150;53.514;9.988;2023-03-16T12:33:43;1.17;;;0.73;;
14139;SDS011;7150;53.514;9.988;2023-03-16T12:39:06;1.20;;;0.70;;
14139;SDS011;7150;53.514;9.988;2023-03-16T12:44:45;1.20;;;0.80;;
14139;SDS011;7150;53.514;9.988;2023-03-16T12:50:13;1.50;;;0.70;;
14139;SDS011;7150;53.514;9.988;2023-03-16T12:52:41;1.37;;;0.70;;
14139;SDS011;7150;53.514;9.988;2023-03-16T12:57:38;1.70;;;0.67;;
14139;SDS011;7150;53.514;9.988;2023-03-16T13:00:05;1.67;;;0.67;;
14139;SDS011;7150;53.514;9.988;2023-03-16T13:02:34;2.03;;;1.00;;
14139;SDS011;7150;53.514;9.988;2023-03-16T13:08:24;2.00;;;0.70;;
14139;SDS011;7150;53.514;9.988;2023-03-16T13:11:07;0.93;;;0.67;;
14139;SDS011;7150;53.514;9.988;2023-03-16T13:13:46;2.67;;;1.17;;
14139;SDS011;7150;53.514;9.988;2023-03-16T13:16:23;1.13;;;0.80;;
14139;SDS011;7150;53.514;9.988;2023-03-16T13:18:52;0.60;;;0.60;;
14139;SDS011;7150;53.514;9.988;2023-03-16T13:21:20;1.93;;;1.00;;
14139;SDS011;7150;53.514;9.988;2023-03-16T13:24:48;1.83;;;0.90;;
14139;SDS011;7150;53.514;9.988;2023-03-16T13:26:51;1.70;;;0.83;;
14139;SDS011;7150;53.514;9.988;2023-03-16T13:29:23;2.53;;;0.93;;
14139;SDS011;7150;53.514;9.988;2023-03-16T13:31:51;2.67;;;0.97;;
14139;SDS011;7150;53.514;9.988;2023-03-16T13:34:21;3.17;;;1.03;;
14139;SDS011;7150;53.514;9.988;2023-03-16T13:36:52;2.50;;;1.20;;
14139;SDS011;7150;53.514;9.988;2023-03-16T13:39:21;2.13;;;0.70;;
14139;SDS011;7150;53.514;9.988;2023-03-16T13:42:00;1.13;;;0.70;;
14139;SDS011;7150;53.514;9.988;2023-03-16T13:44:28;1.80;;;0.73;;
14139;SDS011;7150;53.514;9.988;2023-03-16T13:46:55;2.10;;;0.70;;
14139;SDS011;7150;53.514;9.988;2023-03-16T13:49:21;1.03;;;0.50;;
14139;SDS011;7150;53.514;9.988;2023-03-16T13:51:47;2.27;;;0.43;;
14139;SDS011;7150;53.514;9.988;2023-03-16T13:54:26;2.67;;;0.70;;
14139;SDS011;7150;53.514;9.988;2023-03-16T13:56:56;4.37;;;0.90;;
14139;SDS011;7150;53.514;9.988;2023-03-16T13:59:31;2.13;;;0.90;;
14139;SDS011;7150;53.514;9.988;2023-03-16T14:01:58;2.53;;;0.90;;
14139;SDS011;7150;53.514;9.988;2023-03-16T14:04:27;2.53;;;1.00;;
14139;SDS011;7150;53.514;9.988;2023-03-16T14:06:56;1.80;;;0.70;;
14139;SDS011;7150;53.514;9.988;2023-03-16T14:09:23;1.50;;;1.00;;
14139;SDS011;7150;53.514;9.988;2023-03-16T14:11:59;1.10;;;0.60;;
14139;SDS011;7150;53.514;9.988;2023-03-16T14:14:28;1.83;;;0.87;;
14139;SDS011;7150;53.514;9.988;2023-03-16T14:16:59;2.97;;;0.97;;
14139;SDS011;7150;53.514;9.988;2023-03-16T14:19:27;3.30;;;1.10;;
14139;SDS011;7150;53.514;9.988;2023-03-16T14:22:00;1.93;;;0.97;;
14139;SDS011;7150;53.514;9.988;2023-03-16T14:24:34;1.97;;;0.97;;
14139;SDS011;7150;53.514;9.988;2023-03-16T14:32:52;1.80;;;0.80;;
14139;SDS011;7150;53.514;9.988;2023-03-16T14:35:20;1.00;;;0.63;;
14139;SDS011;7150;53.514;9.988;2023-03-16T14:37:48;1.10;;;0.73;;
14139;SDS011;7150;53.514;9.988;2023-03-16T14:40:26;0.60;;;0.57;;
14139;SDS011;7150;53.514;9.988;2023-03-16T14:42:54;3.70;;;1.07;;
14139;SDS011;7150;53.514;9.988;2023-03-16T14:45:22;2.07;;;1.00;;
14139;SDS011;7150;53.514;9.988;2023-03-16T14:47:53;1.43;;;0.50;;
14139;SDS011;7150;53.514;9.988;2023-03-16T14:50:24;1.27;;;0.77;;
14139;SDS011;7150;53.514;9.988;2023-03-16T14:52:50;1.73;;;0.80;;
14139;SDS011;7150;53.514;9.988;2023-03-16T14:55:19;1.60;;;0.60;;
14139;SDS011;7150;53.514;9.988;2023-03-16T14:57:46;2.77;;;0.70;;
14139;SDS011;7150;53.514;9.988;2023-03-16T15:00:14;3.20;;;1.13;;
14139;SDS011;7150;53.514;9.988;2023-03-16T15:02:41;3.20;;;1.00;;
14139;SDS011;7150;53.514;9.988;2023-03-16T15:05:11;3.23;;;0.90;;
14139;SDS011;7150;53.514;9.988;2023-03-16T15:07:45;3.20;;;0.83;;
14139;SDS011;7150;53.514;9.988;2023-03-16T15:12:40;1.53;;;0.60;;
14139;SDS011;7150;53.514;9.988;2023-03-16T15:15:13;1.37;;;0.97;;
14139;SDS011;7150;53.514;9.988;2023-03-16T15:17:40;2.83;;;0.80;;
14139;SDS011;7150;53.514;9.988;2023-03-16T15:20:16;2.87;;;0.73;;
14139;SDS011;7150;53.514;9.988;2023-03-16T15:22:45;2.17;;;0.80;;
14139;SDS011;7150;53.514;9.988;2023-03-16T15:28:00;2.43;;;0.70;;
14139;SDS011;7150;53.514;9.988;2023-03-16T15:30:43;2.90;;;0.97;;
14139;SDS011;7150;53.514;9.988;2023-03-16T15:33:10;2.03;;;0.80;;
14139;SDS011;7150;53.514;9.988;2023-03-16T15:35:37;1.13;;;1.03;;
14139;SDS011;7150;53.514;9.988;2023-03-16T15:38:14;0.97;;;0.60;;
14139;SDS011;7150;53.514;9.988;2023-03-16T15:40:43;2.27;;;0.90;;
14139;SDS011;7150;53.514;9.988;2023-03-16T15:43:13;2.00;;;0.90;;
14139;SDS011;7150;53.514;9.988;2023-03-16T15:45:40;1.57;;;0.90;;
14139;SDS011;7150;53.514;9.988;2023-03-16T15:48:07;2.73;;;0.80;;
14139;SDS011;7150;53.514;9.988;2023-03-16T15:50:33;1.43;;;0.60;;
14139;SDS011;7150;53.514;9.988;2023-03-16T15:53:04;3.13;;;1.10;;
14139;SDS011;7150;53.514;9.988;2023-03-16T15:55:35;1.37;;;0.90;;
14139;SDS011;7150;53.514;9.988;2023-03-16T15:58:13;2.53;;;0.97;;
14139;SDS011;7150;53.514;9.988;2023-03-16T16:00:42;4.33;;;0.80;;
14139;SDS011;7150;53.514;9.988;2023-03-16T16:03:10;2.50;;;0.90;;
14139;SDS011;7150;53.514;9.988;2023-03-16T16:05:37;1.57;;;0.80;;
14139;SDS011;7150;53.514;9.988;2023-03-16T16:08:03;2.43;;;0.80;;
14139;SDS011;7150;53.514;9.988;2023-03-16T16:10:29;2.10;;;0.80;;
14139;SDS011;7150;53.514;9.988;2023-03-16T16:12:56;1.20;;;0.73;;
14139;SDS011;7150;53.514;9.988;2023-03-16T16:15:23;1.03;;;0.60;;
14139;SDS011;7150;53.514;9.988;2023-03-16T16:17:55;2.93;;;0.77;;
14139;SDS011;7150;53.514;9.988;2023-03-16T16:20:25;3.27;;;0.80;;
14139;SDS011;7150;53.514;9.988;2023-03-16T16:22:53;1.50;;;0.93;;
14139;SDS011;7150;53.514;9.988;2023-03-16T16:25:23;1.47;;;0.70;;
14139;SDS011;7150;53.514;9.988;2023-03-16T16:27:51;2.30;;;1.00;;
14139;SDS011;7150;53.514;9.988;2023-03-16T16:30:50;1.43;;;0.57;;